sensor_id;sensor_type;location;lat;lon;timestamp;temperature;humidity
43647;DHT22;56152;49.996;18.980;2023-03-14T14:06:49;10.80;78.80
43647;DHT22;56152;49.996;18.980;2023-03-14T14:11:54;10.70;75.10
43647;DHT22;56152;49.996;18.980;2023-03-14T14:16:58;10.60;77.10
43647;DHT22;56152;49.996;18.980;2023-03-14T14:22:05;10.60;78.50
43647;DHT22;56152;49.996;18.980;2023-03-14T14:27:12;10.60;79.50
43647;DHT22;56152;49.996;18.980;2023-03-14T14:32:15;10.50;80.40
43647;DHT22;56152;49.996;18.980;2023-03-14T14:37:21;10.50;81.00
43647;DHT22;56152;49.996;18.980;2023-03-14T14:42:26;10.40;81.50
43647;DHT22;56152;49.996;18.980;2023-03-14T14:47:31;10.40;82.10
43647;DHT22;56152;49.996;18.980;2023-03-14T14:52:41;10.40;82.50
43647;DHT22;56152;49.996;18.980;2023-03-14T14:57:49;10.40;83.00
43647;DHT22;56152;49.996;18.980;2023-03-14T15:02:58;10.30;83.30
43647;DHT22;56152;49.996;18.980;2023-03-14T15:08:08;10.30;83.90
43647;DHT22;56152;49.996;18.980;2023-03-14T15:13:14;10.20;84.30
43647;DHT22;56152;49.996;18.980;2023-03-14T15:18:18;10.20;84.70
43647;DHT22;56152;49.996;18.980;2023-03-14T15:23:22;10.10;85.10
43647;DHT22;56152;49.996;18.980;2023-03-14T15:28:26;10.10;85.50
43647;DHT22;56152;49.996;18.980;2023-03-14T15:33:29;10.10;85.90
43647;DHT22;56152;49.996;18.980;2023-03-14T15:38:36;10.00;86.10
43647;DHT22;56152;49.996;18.980;2023-03-14T15:43:44;10.00;86.30
43647;DHT22;56152;49.996;18.980;2023-03-14T15:48:47;10.00;86.60
43647;DHT22;56152;49.996;18.980;2023-03-14T15:53:51;9.80;87.30
43647;DHT22;56152;49.996;18.980;2023-03-14T15:58:54;9.80;87.80
43647;DHT22;56152;49.996;18.980;2023-03-14T16:03:57;9.70;88.10
43647;DHT22;56152;49.996;18.980;2023-03-14T16:09:02;9.60;88.40
43647;DHT22;56152;49.996;18.980;2023-03-14T16:14:08;9.50;88.50
43647;DHT22;56152;49.996;18.980;2023-03-14T16:19:11;9.50;88.90
43647;DHT22;56152;49.996;18.980;2023-03-14T16:24:15;9.40;89.10
43647;DHT22;56152;49.996;18.980;2023-03-14T16:29:20;9.30;89.50
43647;DHT22;56152;49.996;18.980;2023-03-14T16:34:23;9.30;89.90
43647;DHT22;56152;49.996;18.980;2023-03-14T16:39:27;9.30;90.00
43647;DHT22;56152;49.996;18.980;2023-03-14T16:44:31;9.30;90.10
43647;DHT22;56152;49.996;18.980;2023-03-14T16:49:34;9.30;90.10
43647;DHT22;56152;49.996;18.980;2023-03-14T16:54:39;9.30;90.10
43647;DHT22;56152;49.996;18.980;2023-03-14T16:59:41;9.30;90.20
43647;DHT22;56152;49.996;18.980;2023-03-14T17:04:43;9.20;90.30
43647;DHT22;56152;49.996;18.980;2023-03-14T17:09:49;9.10;90.40
43647;DHT22;56152;49.996;18.980;2023-03-14T17:14:53;9.10;90.60
43647;DHT22;56152;49.996;18.980;2023-03-14T17:19:57;9.00;90.70
43647;DHT22;56152;49.996;18.980;2023-03-14T17:25:01;8.90;90.80
43647;DHT22;56152;49.996;18.980;2023-03-14T17:30:06;8.90;90.90
43647;DHT22;56152;49.996;18.980;2023-03-14T17:35:08;8.80;91.00
43647;DHT22;56152;49.996;18.980;2023-03-14T17:40:14;8.80;91.00
43647;DHT22;56152;49.996;18.980;2023-03-14T17:45:17;8.70;91.10
43647;DHT22;56152;49.996;18.980;2023-03-14T17:50:19;8.70;91.20
43647;DHT22;56152;49.996;18.980;2023-03-14T17:55:23;8.60;91.20
43647;DHT22;56152;49.996;18.980;2023-03-14T18:00:26;8.60;91.20
43647;DHT22;56152;49.996;18.980;2023-03-14T18:05:29;8.50;91.20
43647;DHT22;56152;49.996;18.980;2023-03-14T18:10:33;8.50;91.30
43647;DHT22;56152;49.996;18.980;2023-03-14T18:15:37;8.40;91.30
43647;DHT22;56152;49.996;18.980;2023-03-14T18:20:40;8.40;91.30
43647;DHT22;56152;49.996;18.980;2023-03-14T18:25:45;8.40;91.30
43647;DHT22;56152;49.996;18.980;2023-03-14T18:30:48;8.40;91.30
43647;DHT22;56152;49.996;18.980;2023-03-14T18:35:52;8.40;91.20
43647;DHT22;56152;49.996;18.980;2023-03-14T18:41:02;8.50;91.20
43647;DHT22;56152;49.996;18.980;2023-03-14T18:46:05;8.50;91.10
43647;DHT22;56152;49.996;18.980;2023-03-14T18:51:07;8.60;91.10
43647;DHT22;56152;49.996;18.980;2023-03-14T18:56:13;8.60;91.10
43647;DHT22;56152;49.996;18.980;2023-03-14T19:01:15;8.60;90.90
43647;DHT22;56152;49.996;18.980;2023-03-14T19:06:18;8.60;90.90
43647;DHT22;56152;49.996;18.980;2023-03-14T19:11:23;8.60;90.90
43647;DHT22;56152;49.996;18.980;2023-03-14T19:16:26;8.60;90.90
43647;DHT22;56152;49.996;18.980;2023-03-14T19:21:30;8.60;90.90
43647;DHT22;56152;49.996;18.980;2023-03-14T19:26:35;8.60;90.90
43647;DHT22;56152;49.996;18.980;2023-03-14T19:31:38;8.80;90.70
43647;DHT22;56152;49.996;18.980;2023-03-14T19:36:42;8.80;90.50
43647;DHT22;56152;49.996;18.980;2023-03-14T19:41:46;8.80;90.40
43647;DHT22;56152;49.996;18.980;2023-03-14T19:46:48;8.90;90.40
43647;DHT22;56152;49.996;18.980;2023-03-14T19:51:52;8.80;90.40
43647;DHT22;56152;49.996;18.980;2023-03-14T19:56:59;8.80;90.40
43647;DHT22;56152;49.996;18.980;2023-03-14T20:02:03;8.60;90.40
43647;DHT22;56152;49.996;18.980;2023-03-14T20:07:06;8.50;90.50
43647;DHT22;56152;49.996;18.980;2023-03-14T20:12:11;8.40;90.60
43647;DHT22;56152;49.996;18.980;2023-03-14T20:17:13;8.40;90.70
43647;DHT22;56152;49.996;18.980;2023-03-14T20:22:15;8.30;90.70
43647;DHT22;56152;49.996;18.980;2023-03-14T20:27:20;8.30;90.70
43647;DHT22;56152;49.996;18.980;2023-03-14T20:32:22;8.20;90.70
43647;DHT22;56152;49.996;18.980;2023-03-14T20:37:24;8.20;91.00
43647;DHT22;56152;49.996;18.980;2023-03-14T20:42:27;8.20;90.70
43647;DHT22;56152;49.996;18.980;2023-03-14T20:47:29;8.20;90.70
43647;DHT22;56152;49.996;18.980;2023-03-14T20:52:31;8.10;90.60
43647;DHT22;56152;49.996;18.980;2023-03-14T20:57:36;8.10;90.60
43647;DHT22;56152;49.996;18.980;2023-03-14T21:02:39;8.10;90.50
43647;DHT22;56152;49.996;18.980;2023-03-14T21:07:42;8.10;90.50
43647;DHT22;56152;49.996;18.980;2023-03-14T21:12:47;8.10;90.50
43647;DHT22;56152;49.996;18.980;2023-03-14T21:17:49;8.10;90.50
43647;DHT22;56152;49.996;18.980;2023-03-14T21:22:53;8.00;90.40
43647;DHT22;56152;49.996;18.980;2023-03-14T21:27:57;7.90;90.40
43647;DHT22;56152;49.996;18.980;2023-03-14T21:32:59;7.80;90.60
43647;DHT22;56152;49.996;18.980;2023-03-14T21:38:02;7.70;90.70
43647;DHT22;56152;49.996;18.980;2023-03-14T21:43:08;7.70;90.70
43647;DHT22;56152;49.996;18.980;2023-03-14T21:48:17;7.70;90.70
43647;DHT22;56152;49.996;18.980;2023-03-14T21:53:19;7.70;90.70
43647;DHT22;56152;49.996;18.980;2023-03-14T21:58:31;7.80;90.70
43647;DHT22;56152;49.996;18.980;2023-03-14T22:03:35;7.90;90.60
43647;DHT22;56152;49.996;18.980;2023-03-14T22:08:38;8.10;90.50
43647;DHT22;56152;49.996;18.980;2023-03-14T22:13:42;8.10;90.40
43647;DHT22;56152;49.996;18.980;2023-03-14T22:18:44;8.20;90.30
43647;DHT22;56152;49.996;18.980;2023-03-14T22:23:47;8.40;90.20
43647;DHT22;56152;49.996;18.980;2023-03-14T22:28:52;8.40;90.10
43647;DHT22;56152;49.996;18.980;2023-03-14T22:33:56;8.50;90.10
43647;DHT22;56152;49.996;18.980;2023-03-14T22:39:00;8.60;90.00
43647;DHT22;56152;49.996;18.980;2023-03-14T22:44:07;8.60;90.00
43647;DHT22;56152;49.996;18.980;2023-03-14T22:49:13;8.70;90.00
43647;DHT22;56152;49.996;18.980;2023-03-14T22:54:17;8.80;90.00
43647;DHT22;56152;49.996;18.980;2023-03-14T22:59:21;8.70;89.70
43647;DHT22;56152;49.996;18.980;2023-03-14T23:04:23;8.40;89.90
43647;DHT22;56152;49.996;18.980;2023-03-14T23:09:26;8.00;90.30
43647;DHT22;56152;49.996;18.980;2023-03-14T23:14:30;7.60;90.50
43647;DHT22;56152;49.996;18.980;2023-03-14T23:19:35;7.30;90.80
43647;DHT22;56152;49.996;18.980;2023-03-14T23:24:39;7.10;91.00
43647;DHT22;56152;49.996;18.980;2023-03-14T23:29:44;6.90;91.10
43647;DHT22;56152;49.996;18.980;2023-03-14T23:34:47;6.80;91.10
43647;DHT22;56152;49.996;18.980;2023-03-14T23:39:49;6.60;91.20
43647;DHT22;56152;49.996;18.980;2023-03-14T23:44:57;6.50;91.20
43647;DHT22;56152;49.996;18.980;2023-03-14T23:50:00;6.20;91.00
43647;DHT22;56152;49.996;18.980;2023-03-14T23:55:06;5.80;90.90
